Time;durP1;ratioP1;P1;durP2;ratioP2;P2;SDS_P1;SDS_P2;PMS_P1;PMS_P2;Temp;Humidity;BMP_temperature;BMP_pressure;BME280_temperature;BME280_humidity;BME280_pressure;Samples;Min_cycle;Max_cycle;Signal;HPM_P1;HPM_P2
2022/05/05 00:00:01;;;;;;;11.57;3.60;;;14.10;44.00;;;;;;5097943;28;20491;-44
2022/05/05 00:02:28;;;;;;;8.77;4.22;;;14.00;44.00;;;;;;5092269;28;20063;-43
2022/05/05 00:04:55;;;;;;;14.15;4.32;;;14.00;43.90;;;;;;5098511;28;20060;-43
2022/05/05 00:07:23;;;;;;;13.98;3.75;;;13.90;44.40;;;;;;5101499;28;20506;-46
2022/05/05 00:09:50;;;;;;;7.35;3.75;;;13.90;43.90;;;;;;5100684;28;20056;-44
2022/05/05 00:15:07;;;;;;;8.07;3.90;;;13.80;44.20;;;;;;5106587;28;20059;-44
2022/05/05 00:17:35;;;;;;;5.90;3.55;;;13.70;44.40;;;;;;5099566;28;20423;-44
2022/05/05 00:20:02;;;;;;;5.32;2.80;;;13.70;44.50;;;;;;5098529;28;20506;-43
2022/05/05 00:22:30;;;;;;;6.88;3.33;;;13.70;44.70;;;;;;5094715;28;20814;-44
2022/05/05 00:24:57;;;;;;;8.15;3.53;;;13.60;44.70;;;;;;5096350;28;20078;-43
2022/05/05 00:27:25;;;;;;;9.93;3.72;;;13.60;44.80;;;;;;5102029;28;20063;-44
2022/05/05 00:29:54;;;;;;;5.45;3.20;;;13.60;44.90;;;;;;5098146;28;20051;-43
2022/05/05 00:32:23;;;;;;;5.60;3.00;;;13.50;44.80;;;;;;5089531;28;20487;-43
2022/05/05 00:34:50;;;;;;;5.55;3.13;;;13.50;44.90;;;;;;5090332;28;20503;-45
2022/05/05 00:37:17;;;;;;;6.53;3.20;;;13.50;45.00;;;;;;5095301;28;20650;-44
2022/05/05 00:39:45;;;;;;;6.18;3.08;;;13.50;45.10;;;;;;5097540;28;20055;-43
2022/05/05 00:42:13;;;;;;;5.10;2.88;;;13.40;45.10;;;;;;5095576;28;20502;-46
2022/05/05 00:44:41;;;;;;;5.78;3.03;;;13.40;45.20;;;;;;5100706;28;20418;-45
2022/05/05 00:47:09;;;;;;;6.05;3.15;;;13.30;45.20;;;;;;5098681;28;20052;-43
2022/05/05 00:49:38;;;;;;;5.47;3.15;;;13.30;45.40;;;;;;5098298;28;20066;-43
2022/05/05 00:52:06;;;;;;;10.15;3.85;;;13.30;45.50;;;;;;5093970;28;20059;-44
2022/05/05 00:54:33;;;;;;;7.32;3.38;;;13.30;45.60;;;;;;5099111;28;20051;-45
2022/05/05 00:57:01;;;;;;;5.90;3.35;;;13.30;45.50;;;;;;5100712;28;20056;-45
2022/05/05 00:59:28;;;;;;;8.27;3.25;;;13.20;45.40;;;;;;5100910;28;20048;-44
2022/05/05 01:01:56;;;;;;;6.00;3.20;;;13.20;45.50;;;;;;5093888;28;20532;-42
2022/05/05 01:04:25;;;;;;;6.97;3.58;;;13.10;45.50;;;;;;5096350;28;20051;-43
2022/05/05 01:06:54;;;;;;;5.72;3.15;;;13.10;45.70;;;;;;5100881;28;20403;-43
2022/05/05 01:09:22;;;;;;;8.93;3.13;;;13.10;45.80;;;;;;5097361;28;20056;-44
2022/05/05 01:11:50;;;;;;;7.70;3.15;;;13.10;46.00;;;;;;5094338;28;20670;-43
2022/05/05 01:14:18;;;;;;;14.40;3.40;;;13.00;45.90;;;;;;5100989;28;20384;-43
2022/05/05 01:16:45;;;;;;;6.80;3.03;;;13.00;45.90;;;;;;5098307;28;20062;-43
2022/05/05 01:19:13;;;;;;;6.20;2.97;;;13.00;45.90;;;;;;5097639;28;20062;-43
2022/05/05 01:21:41;;;;;;;6.43;3.42;;;12.90;45.90;;;;;;5091243;28;20052;-45
2022/05/05 01:24:09;;;;;;;7.00;2.92;;;12.90;46.00;;;;;;5096693;28;20048;-42
2022/05/05 01:29:33;;;;;;;10.35;3.95;;;12.90;46.10;;;;;;5052287;28;20044;-43
2022/05/05 01:32:00;;;;;;;8.48;4.07;;;12.90;46.20;;;;;;5084748;28;20941;-43
2022/05/05 01:34:29;;;;;;;14.45;3.83;;;12.80;46.40;;;;;;5094704;28;20066;-43
2022/05/05 01:36:57;;;;;;;7.78;3.35;;;12.80;46.40;;;;;;5097931;28;20059;-45
2022/05/05 01:39:25;;;;;;;7.53;3.55;;;12.80;46.30;;;;;;5091850;28;20137;-43
2022/05/05 01:41:52;;;;;;;8.50;4.03;;;12.80;46.40;;;;;;5097573;28;20048;-42
2022/05/05 01:44:20;;;;;;;5.28;3.40;;;12.80;46.60;;;;;;5097109;28;20051;-43
2022/05/05 01:46:47;;;;;;;6.00;3.30;;;12.70;46.50;;;;;;5096766;28;20055;-43
2022/05/05 01:49:14;;;;;;;7.03;3.63;;;12.70;46.60;;;;;;5097957;28;20067;-48
2022/05/05 01:51:42;;;;;;;7.20;3.72;;;12.70;46.70;;;;;;5092739;28;20059;-43
2022/05/05 01:54:11;;;;;;;7.45;3.40;;;12.70;46.80;;;;;;5098454;28;20427;-43
2022/05/05 01:56:38;;;;;;;9.18;3.67;;;12.60;46.80;;;;;;5096623;28;20052;-43
2022/05/05 01:59:06;;;;;;;8.02;3.30;;;12.60;46.80;;;;;;5082498;28;20048;-43
2022/05/05 02:01:33;;;;;;;6.47;3.65;;;12.60;46.80;;;;;;5089522;28;21447;-45
2022/05/05 02:04:01;;;;;;;8.02;3.92;;;12.60;46.80;;;;;;5090569;28;20052;-43
2022/05/05 02:06:29;;;;;;;9.65;3.80;;;12.60;46.80;;;;;;5096009;27;20044;-43
2022/05/05 02:08:58;;;;;;;9.07;4.60;;;12.60;46.80;;;;;;5097924;28;20608;-46
2022/05/05 02:11:29;;;;;;;8.45;3.90;;;12.60;46.80;;;;;;5102855;28;20203;-45
2022/05/05 02:13:57;;;;;;;8.07;4.50;;;12.50;47.00;;;;;;5101167;28;20048;-44
2022/05/05 02:16:24;;;;;;;10.60;4.50;;;12.50;47.20;;;;;;5101035;28;20483;-43
2022/05/05 02:18:52;;;;;;;8.55;4.47;;;12.50;47.20;;;;;;5097579;28;20055;-43
2022/05/05 02:21:19;;;;;;;7.13;4.57;;;12.40;47.30;;;;;;5099422;28;20055;-45
2022/05/05 02:23:46;;;;;;;13.05;4.55;;;12.40;47.40;;;;;;5098490;28;20055;-43
2022/05/05 02:26:14;;;;;;;11.50;4.50;;;12.40;47.40;;;;;;5103505;28;20514;-46
2022/05/05 02:28:43;;;;;;;10.00;4.20;;;12.30;47.50;;;;;;5101896;28;20051;-44
2022/05/05 02:31:10;;;;;;;9.80;4.68;;;12.30;47.60;;;;;;5100650;28;21076;-43
2022/05/05 02:33:38;;;;;;;9.07;4.32;;;12.30;47.80;;;;;;5094511;28;20055;-43
2022/05/05 02:38:51;;;;;;;23.52;6.20;;;12.30;48.00;;;;;;5100543;28;20521;-44
2022/05/05 02:41:20;;;;;;;13.73;5.57;;;12.20;48.00;;;;;;5099869;27;20055;-44
2022/05/05 02:43:49;;;;;;;11.52;5.30;;;12.20;48.10;;;;;;5092780;28;20400;-45
2022/05/05 02:46:17;;;;;;;13.02;5.90;;;12.20;48.20;;;;;;5092221;28;20060;-43
2022/05/05 02:48:44;;;;;;;10.20;5.93;;;12.20;48.30;;;;;;5095370;28;20504;-45
2022/05/05 02:51:12;;;;;;;13.75;6.38;;;12.20;48.40;;;;;;5103079;28;20051;-43
2022/05/05 02:56:24;;;;;;;10.70;5.38;;;12.10;48.50;;;;;;5109096;28;20133;-47
2022/05/05 02:58:53;;;;;;;14.75;5.53;;;12.10;48.50;;;;;;5098572;28;20059;-43
2022/05/05 03:03:56;;;;;;;9.88;4.82;;;12.10;48.80;;;;;;5128130;22;20056;-45
2022/05/05 03:06:24;;;;;;;12.35;5.18;;;12.10;48.70;;;;;;5062801;28;20060;-47
2022/05/05 03:08:52;;;;;;;11.10;5.10;;;12.10;48.70;;;;;;5063324;28;20057;-43
2022/05/05 03:11:19;;;;;;;11.48;4.93;;;12.10;48.70;;;;;;5061328;28;20064;-43
2022/05/05 03:13:47;;;;;;;9.48;4.78;;;12.00;48.80;;;;;;5059004;28;20059;-43
2022/05/05 03:16:15;;;;;;;11.88;5.07;;;12.00;48.80;;;;;;5062092;28;20492;-48
2022/05/05 03:18:43;;;;;;;13.50;5.63;;;12.00;48.90;;;;;;5060985;28;20059;-43
2022/05/05 03:21:11;;;;;;;19.60;6.22;;;12.00;48.80;;;;;;5060054;28;20056;-43
2022/05/05 03:23:38;;;;;;;10.77;5.70;;;12.00;48.90;;;;;;5059897;28;20603;-43
2022/05/05 03:26:05;;;;;;;15.32;6.75;;;12.00;49.00;;;;;;5059998;28;20067;-44
2022/05/05 03:28:33;;;;;;;9.57;6.18;;;11.90;49.00;;;;;;5060967;28;20059;-45
2022/05/05 03:31:00;;;;;;;14.80;5.75;;;11.90;49.00;;;;;;5059539;28;20067;-43
2022/05/05 03:33:29;;;;;;;10.27;5.40;;;11.90;49.10;;;;;;5058914;28;20048;-43
2022/05/05 03:35:56;;;;;;;12.98;5.65;;;11.90;49.30;;;;;;5060913;28;20056;-43
2022/05/05 03:38:24;;;;;;;9.75;5.63;;;11.90;49.30;;;;;;5060624;28;20435;-44
2022/05/05 03:40:52;;;;;;;10.68;6.13;;;11.90;49.50;;;;;;5059574;28;20392;-43
2022/05/05 03:43:19;;;;;;;11.60;5.78;;;11.90;49.50;;;;;;5060108;28;20055;-43
2022/05/05 03:45:47;;;;;;;16.33;6.65;;;11.90;49.60;;;;;;5060910;28;20049;-43
2022/05/05 03:48:14;;;;;;;10.23;6.03;;;11.90;49.70;;;;;;5059184;28;20056;-44
2022/05/05 03:50:43;;;;;;;15.95;6.93;;;11.90;49.60;;;;;;5058346;28;20527;-43
2022/05/05 03:53:11;;;;;;;12.88;7.03;;;11.90;49.60;;;;;;5059575;28;20048;-43
2022/05/05 03:55:38;;;;;;;12.13;6.20;;;11.90;49.70;;;;;;5060409;28;20499;-43
2022/05/05 03:58:05;;;;;;;13.25;6.60;;;11.90;49.80;;;;;;5060660;28;20082;-43
2022/05/05 04:00:33;;;;;;;10.73;6.07;;;11.80;49.80;;;;;;5060350;28;20063;-43
2022/05/05 04:05:48;;;;;;;11.60;6.50;;;11.80;50.00;;;;;;5063123;28;20193;-45
2022/05/05 04:08:16;;;;;;;13.45;6.60;;;11.90;50.10;;;;;;5059573;28;20048;-42
2022/05/05 04:10:43;;;;;;;22.70;11.18;;;11.80;50.10;;;;;;5059115;28;20499;-43
2022/05/05 04:13:10;;;;;;;23.40;10.57;;;11.80;50.20;;;;;;5057488;28;20060;-43
2022/05/05 04:15:38;;;;;;;18.15;9.02;;;11.80;50.30;;;;;;5057259;28;20415;-43
2022/05/05 04:18:06;;;;;;;19.73;8.65;;;11.80;50.40;;;;;;5050847;28;20055;-43
2022/05/05 04:20:33;;;;;;;12.77;7.20;;;11.80;50.40;;;;;;5060237;28;20380;-43
2022/05/05 04:23:02;;;;;;;14.10;6.65;;;11.90;50.50;;;;;;5058589;28;20055;-43
2022/05/05 04:25:30;;;;;;;13.48;6.88;;;11.80;50.50;;;;;;5056939;28;20055;-44
2022/05/05 04:27:57;;;;;;;12.48;7.13;;;11.90;50.50;;;;;;5060938;28;20067;-45
2022/05/05 04:30:25;;;;;;;12.90;6.78;;;11.80;50.50;;;;;;5056504;28;20062;-46
2022/05/05 04:32:52;;;;;;;10.88;6.72;;;11.90;50.60;;;;;;5057339;28;20049;-45
2022/05/05 04:35:20;;;;;;;13.70;8.25;;;11.90;50.60;;;;;;5058527;28;20060;-43
2022/05/05 04:37:48;;;;;;;15.30;7.18;;;11.90;50.70;;;;;;5060625;28;20052;-43
2022/05/05 04:40:17;;;;;;;17.13;7.00;;;11.90;50.60;;;;;;5061335;28;20056;-43
2022/05/05 04:42:44;;;;;;;11.15;6.60;;;11.90;50.70;;;;;;5057594;28;20049;-43
2022/05/05 04:45:12;;;;;;;12.45;6.40;;;11.90;50.70;;;;;;5057670;28;20053;-44
2022/05/05 04:47:39;;;;;;;12.27;6.22;;;11.90;50.80;;;;;;5059737;28;20423;-43
2022/05/05 04:50:08;;;;;;;9.45;5.97;;;11.90;50.80;;;;;;5059619;28;20064;-43
2022/05/05 04:52:35;;;;;;;12.32;6.70;;;11.90;50.90;;;;;;5059322;28;20048;-43
2022/05/05 04:55:03;;;;;;;12.98;6.05;;;11.90;50.90;;;;;;5058607;28;20052;-43
2022/05/05 04:57:34;;;;;;;33.45;16.33;;;11.90;50.90;;;;;;5058406;28;20056;-43
2022/05/05 05:00:01;;;;;;;29.08;13.68;;;11.90;51.00;;;;;;5057743;28;20052;-43
2022/05/05 05:02:29;;;;;;;27.10;12.13;;;11.90;51.00;;;;;;5057579;28;20048;-44
2022/05/05 05:04:56;;;;;;;24.00;11.63;;;11.90;51.20;;;;;;5059135;28;20063;-42
2022/05/05 05:07:23;;;;;;;17.98;9.15;;;12.00;51.50;;;;;;5060200;28;20415;-44
2022/05/05 05:09:51;;;;;;;23.70;9.73;;;12.00;51.70;;;;;;5058547;28;20063;-45
2022/05/05 05:12:18;;;;;;;17.25;8.50;;;12.00;51.80;;;;;;5058248;28;20055;-43
2022/05/05 05:14:47;;;;;;;13.13;6.78;;;12.00;51.90;;;;;;5060426;28;20119;-43
2022/05/05 05:17:15;;;;;;;14.57;7.57;;;12.00;51.70;;;;;;5057605;28;20095;-44
2022/05/05 05:19:42;;;;;;;11.82;6.72;;;12.10;51.80;;;;;;5057237;28;20061;-44
2022/05/05 05:22:10;;;;;;;13.75;7.53;;;12.10;51.80;;;;;;5057460;28;20056;-44
2022/05/05 05:24:37;;;;;;;14.52;7.05;;;12.10;51.90;;;;;;5059594;28;20060;-43
2022/05/05 05:27:06;;;;;;;14.32;8.52;;;12.20;51.90;;;;;;5054141;28;20052;-43
2022/05/05 05:29:33;;;;;;;19.45;8.75;;;12.20;52.10;;;;;;5060584;28;20056;-44
2022/05/05 05:32:02;;;;;;;23.92;10.82;;;12.20;52.20;;;;;;5059291;28;20063;-43
2022/05/05 05:34:30;;;;;;;32.60;13.68;;;12.30;52.50;;;;;;5059464;28;20056;-42
2022/05/05 05:36:57;;;;;;;30.75;14.35;;;12.40;52.70;;;;;;5063396;28;20067;-43
2022/05/05 05:39:25;;;;;;;24.50;13.63;;;12.40;52.90;;;;;;5064000;28;20056;-43
2022/05/05 05:41:53;;;;;;;23.50;12.93;;;12.50;53.20;;;;;;5056414;28;20060;-43
2022/05/05 05:44:20;;;;;;;24.25;13.45;;;12.60;53.20;;;;;;5054209;28;20087;-44
2022/05/05 05:46:48;;;;;;;26.10;14.10;;;12.70;53.10;;;;;;5060790;28;20044;-44
2022/05/05 05:49:16;;;;;;;22.50;14.05;;;12.80;53.10;;;;;;5051149;28;20061;-43
2022/05/05 05:51:44;;;;;;;25.55;13.02;;;12.90;53.10;;;;;;5051652;28;20382;-43
2022/05/05 05:54:11;;;;;;;22.25;11.75;;;12.90;53.20;;;;;;5055034;28;20507;-43
2022/05/05 05:56:40;;;;;;;20.23;11.30;;;13.00;53.50;;;;;;5046189;28;20053;-44
2022/05/05 05:59:07;;;;;;;29.90;13.52;;;13.10;53.50;;;;;;5045733;28;20480;-43
2022/05/05 06:04:20;;;;;;;28.08;14.23;;;13.30;53.70;;;;;;5068389;28;20055;-43
2022/05/05 06:06:48;;;;;;;32.47;16.23;;;13.30;53.50;;;;;;5052215;28;20083;-44
2022/05/05 06:09:16;;;;;;;28.42;14.10;;;13.40;53.30;;;;;;5056201;28;20389;-44
2022/05/05 06:11:44;;;;;;;16.27;9.60;;;13.50;53.30;;;;;;5061242;28;21333;-43
2022/05/05 06:14:12;;;;;;;15.77;9.13;;;13.60;53.30;;;;;;5063517;28;20838;-43
2022/05/05 06:16:39;;;;;;;17.45;9.05;;;13.70;53.50;;;;;;5060292;28;20400;-45
2022/05/05 06:19:06;;;;;;;19.48;9.48;;;13.80;53.50;;;;;;5049176;28;20075;-44
2022/05/05 06:21:36;;;;;;;20.33;11.18;;;13.90;53.50;;;;;;5038791;28;20930;-43
2022/05/05 06:24:04;;;;;;;28.23;14.32;;;13.90;53.50;;;;;;5049677;28;20063;-43
2022/05/05 06:26:32;;;;;;;27.20;15.07;;;14.10;53.40;;;;;;5054930;28;20060;-43
2022/05/05 06:29:00;;;;;;;30.33;15.95;;;14.10;53.20;;;;;;5058696;28;20055;-43
2022/05/05 06:31:27;;;;;;;29.08;16.30;;;14.20;53.10;;;;;;5050785;28;20056;-45
2022/05/05 06:33:54;;;;;;;33.78;16.65;;;14.30;53.00;;;;;;5060556;28;20695;-45
2022/05/05 06:36:23;;;;;;;31.83;15.68;;;14.30;52.80;;;;;;5051227;28;20059;-43
2022/05/05 06:38:53;;;;;;;39.45;17.50;;;14.40;52.80;;;;;;5053161;28;20408;-43
2022/05/05 06:41:21;;;;;;;33.53;17.55;;;14.40;52.80;;;;;;5048242;28;20067;-47
2022/05/05 06:43:48;;;;;;;40.05;18.17;;;14.50;52.60;;;;;;5048840;28;20045;-42
2022/05/05 06:46:16;;;;;;;37.15;18.55;;;14.50;52.70;;;;;;5047964;28;20402;-43
2022/05/05 06:48:43;;;;;;;31.30;16.70;;;14.60;52.90;;;;;;5051962;28;20059;-46
2022/05/05 06:51:11;;;;;;;37.25;17.27;;;14.50;52.80;;;;;;5038573;28;20729;-43
2022/05/05 06:53:38;;;;;;;51.72;19.45;;;14.60;52.90;;;;;;5040026;28;20052;-44
2022/05/05 06:56:07;;;;;;;37.47;19.42;;;14.60;53.00;;;;;;5039244;28;20487;-43
2022/05/05 06:58:35;;;;;;;35.55;18.98;;;14.60;52.70;;;;;;5051234;28;20518;-45
2022/05/05 07:03:47;;;;;;;37.10;18.73;;;14.60;53.10;;;;;;5061046;28;20060;-43
2022/05/05 07:06:13;;;;;;;31.90;16.77;;;14.60;53.10;;;;;;5058691;28;20060;-43
2022/05/05 07:11:27;;;;;;;35.85;17.80;;;14.70;52.80;;;;;;5066874;28;20063;-43
2022/05/05 07:13:54;;;;;;;37.15;17.33;;;14.70;52.80;;;;;;5060390;28;20057;-44
2022/05/05 07:16:22;;;;;;;35.70;18.38;;;14.70;52.90;;;;;;5059215;28;20060;-43
2022/05/05 07:18:49;;;;;;;45.30;20.45;;;14.80;53.10;;;;;;5059626;28;20067;-44
2022/05/05 07:21:17;;;;;;;39.30;20.40;;;14.80;52.80;;;;;;5062019;28;20052;-47
2022/05/05 07:23:44;;;;;;;41.00;21.42;;;14.70;53.00;;;;;;5059964;28;20053;-43
2022/05/05 07:26:14;;;;;;;39.08;19.58;;;14.70;53.00;;;;;;5060488;28;20048;-43
2022/05/05 07:28:42;;;;;;;29.75;16.70;;;14.70;53.00;;;;;;5060802;28;20052;-46
2022/05/05 07:31:10;;;;;;;42.75;19.90;;;14.70;53.00;;;;;;5059496;28;20427;-43
2022/05/05 07:33:37;;;;;;;36.10;17.80;;;14.80;53.90;;;;;;5058261;28;20052;-43
2022/05/05 07:36:06;;;;;;;38.53;19.85;;;14.80;53.60;;;;;;5061723;28;20450;-43
2022/05/05 07:38:35;;;;;;;36.35;19.23;;;14.90;53.40;;;;;;5060987;28;20060;-43
2022/05/05 07:41:03;;;;;;;31.75;18.15;;;14.90;53.50;;;;;;5060835;28;20052;-42
2022/05/05 07:43:30;;;;;;;35.10;17.85;;;15.00;53.60;;;;;;5057812;28;20068;-43
2022/05/05 07:46:00;;;;;;;35.15;16.77;;;15.10;53.20;;;;;;5054990;28;20400;-43
2022/05/05 07:48:27;;;;;;;38.88;19.42;;;15.20;53.20;;;;;;5056628;28;20048;-42
2022/05/05 07:50:54;;;;;;;42.42;19.52;;;15.20;52.70;;;;;;5053994;28;20067;-43
2022/05/05 07:53:22;;;;;;;33.80;18.33;;;15.30;52.40;;;;;;5047463;28;20052;-44
2022/05/05 07:55:49;;;;;;;32.60;18.20;;;15.40;52.40;;;;;;5053588;28;20072;-43
2022/05/05 07:58:17;;;;;;;34.92;18.05;;;15.40;52.20;;;;;;5036682;28;20068;-42
2022/05/05 08:00:44;;;;;;;31.98;17.13;;;15.50;52.00;;;;;;5044126;28;20865;-43
2022/05/05 08:03:13;;;;;;;33.42;18.70;;;15.50;51.90;;;;;;5047038;28;20059;-45
2022/05/05 08:05:41;;;;;;;36.40;17.95;;;15.50;52.30;;;;;;5043246;28;20056;-48
2022/05/05 08:08:08;;;;;;;36.45;17.67;;;15.60;52.50;;;;;;5048036;28;20052;-43
2022/05/05 08:10:36;;;;;;;37.08;16.90;;;15.60;52.30;;;;;;5053135;28;20052;-42
2022/05/05 08:13:04;;;;;;;36.28;18.27;;;15.70;51.90;;;;;;5055160;28;20052;-44
2022/05/05 08:15:32;;;;;;;30.00;16.38;;;15.70;51.60;;;;;;5051254;28;20060;-44
2022/05/05 08:17:59;;;;;;;33.75;17.30;;;15.80;52.10;;;;;;5057971;28;20079;-44
2022/05/05 08:20:29;;;;;;;30.35;16.38;;;15.90;52.10;;;;;;5051246;28;20053;-43
2022/05/05 08:22:56;;;;;;;35.50;16.17;;;15.90;52.20;;;;;;5050345;28;20499;-42
2022/05/05 08:30:53;;;;;;;35.25;16.42;;;16.20;51.70;;;;;;5054342;28;20055;-43
2022/05/05 08:33:21;;;;;;;37.50;16.20;;;16.20;51.40;;;;;;5048910;28;20048;-43
2022/05/05 08:35:50;;;;;;;35.47;17.20;;;16.30;51.30;;;;;;5056060;28;20499;-42
2022/05/05 08:38:18;;;;;;;34.45;17.88;;;16.30;50.70;;;;;;5055778;28;20491;-42
2022/05/05 08:40:45;;;;;;;39.92;15.80;;;16.40;51.00;;;;;;5051681;28;20056;-43
2022/05/05 08:43:13;;;;;;;37.83;16.95;;;16.40;51.10;;;;;;5048871;28;20599;-43
2022/05/05 08:45:41;;;;;;;27.67;15.65;;;16.50;49.90;;;;;;5055879;28;20053;-43
2022/05/05 08:48:12;;;;;;;29.52;15.68;;;16.50;49.70;;;;;;5056262;28;20063;-42
2022/05/05 08:50:41;;;;;;;32.92;15.80;;;16.60;49.70;;;;;;5040946;28;20048;-42
2022/05/05 08:53:12;;;;;;;32.30;15.60;;;16.60;50.30;;;;;;5045432;28;20060;-42
2022/05/05 08:55:40;;;;;;;32.38;15.23;;;16.70;50.00;;;;;;5041939;28;20053;-42
2022/05/05 08:58:07;;;;;;;27.35;13.68;;;16.80;49.30;;;;;;5043916;28;20055;-43
2022/05/05 09:00:35;;;;;;;32.67;15.60;;;16.80;49.00;;;;;;5040471;28;20502;-45
2022/05/05 09:03:04;;;;;;;34.63;14.68;;;16.90;48.20;;;;;;5043745;28;20697;-43
2022/05/05 09:05:48;;;;;;;29.00;14.02;;;16.90;48.00;;;;;;5056323;28;20053;-43
2022/05/05 09:08:33;;;;;;;27.48;13.65;;;16.90;47.60;;;;;;5049096;28;20067;-43
2022/05/05 09:11:02;;;;;;;23.20;12.45;;;16.90;47.20;;;;;;5057718;28;20059;-43
2022/05/05 09:13:31;;;;;;;24.05;11.18;;;17.00;47.60;;;;;;5052451;28;20056;-43
2022/05/05 09:15:59;;;;;;;28.17;13.10;;;17.00;46.50;;;;;;5049149;28;20052;-44
2022/05/05 09:18:28;;;;;;;33.95;14.43;;;17.10;46.90;;;;;;5061063;28;20056;-42
2022/05/05 09:20:57;;;;;;;25.10;11.60;;;17.10;47.00;;;;;;5056283;28;20087;-43
2022/05/05 09:23:31;;;;;;;23.60;13.25;;;17.10;47.40;;;;;;5050606;28;20384;-43
2022/05/05 09:25:59;;;;;;;23.60;11.25;;;17.20;47.10;;;;;;5061925;28;20052;-42
2022/05/05 09:28:30;;;;;;;27.88;13.57;;;17.30;47.00;;;;;;5062407;28;20060;-42
2022/05/05 09:31:04;;;;;;;27.33;12.68;;;17.30;46.20;;;;;;5059659;28;20515;-43
2022/05/05 09:33:43;;;;;;;29.33;13.50;;;17.40;46.50;;;;;;5054896;28;20045;-42
2022/05/05 09:36:12;;;;;;;24.08;11.82;;;17.40;46.20;;;;;;5049308;28;20037;-44
2022/05/05 09:38:51;;;;;;;31.45;13.60;;;17.50;46.80;;;;;;5050628;28;20514;-42
2022/05/05 09:41:19;;;;;;;26.38;12.23;;;17.60;46.60;;;;;;5061918;28;20056;-43
2022/05/05 09:43:46;;;;;;;24.85;12.40;;;17.60;46.30;;;;;;5054666;28;20048;-45
2022/05/05 09:46:34;;;;;;;26.05;12.35;;;17.70;46.20;;;;;;5056754;28;20064;-44
2022/05/05 09:49:10;;;;;;;21.23;11.23;;;17.80;46.10;;;;;;5051089;28;20052;-45
2022/05/05 09:51:41;;;;;;;27.80;12.00;;;17.90;46.20;;;;;;5057323;28;20056;-43
2022/05/05 09:59:48;;;;;;;27.42;12.80;;;18.10;44.80;;;;;;5061765;28;20063;-43
2022/05/05 10:04:00;;;;;;;30.45;13.85;;;18.20;44.60;;;;;;5049415;28;20057;-44
2022/05/05 10:05:10;;;;;;;25.02;12.85;;;18.20;42.60;;;;;;5058217;28;20378;-43
2022/05/05 10:07:41;;;;;;;26.67;13.55;;;18.20;43.20;;;;;;5056501;28;20386;-43
2022/05/05 10:10:11;;;;;;;25.55;13.43;;;18.20;44.30;;;;;;5057271;28;20071;-43
2022/05/05 10:12:40;;;;;;;33.35;14.65;;;18.20;43.60;;;;;;5053207;28;20052;-42
2022/05/05 10:15:11;;;;;;;21.15;12.77;;;18.30;43.50;;;;;;5062466;28;20995;-42
2022/05/05 10:17:39;;;;;;;29.33;15.25;;;18.30;44.10;;;;;;5057715;28;20064;-43
2022/05/05 10:20:12;;;;;;;40.30;15.63;;;18.30;43.50;;;;;;5054992;28;20060;-44
2022/05/05 10:22:47;;;;;;;33.03;16.70;;;18.30;43.70;;;;;;5059905;28;20056;-43
2022/05/05 10:25:22;;;;;;;28.67;16.95;;;18.40;43.40;;;;;;5060778;28;20059;-43
2022/05/05 10:27:49;;;;;;;30.45;14.75;;;18.40;44.40;;;;;;5060786;28;20060;-44
2022/05/05 10:30:18;;;;;;;25.38;14.55;;;18.50;44.90;;;;;;5063512;28;20061;-43
2022/05/05 10:32:45;;;;;;;36.35;18.02;;;18.50;44.90;;;;;;5060154;28;20758;-43
2022/05/05 10:35:23;;;;;;;38.90;17.70;;;18.60;44.10;;;;;;5062364;28;20048;-43
2022/05/05 10:37:51;;;;;;;38.90;18.35;;;18.60;43.00;;;;;;5059616;28;20499;-44
2022/05/05 10:40:20;;;;;;;39.13;18.90;;;18.60;42.50;;;;;;5063112;28;20056;-43
2022/05/05 10:42:51;;;;;;;37.08;18.70;;;18.60;42.10;;;;;;5059937;28;20068;-44
2022/05/05 10:45:20;;;;;;;36.78;19.20;;;18.60;43.30;;;;;;5062268;28;20526;-45
2022/05/05 10:48:30;;;;;;;29.30;15.88;;;18.60;43.00;;;;;;5059849;28;20632;-46
2022/05/05 10:51:07;;;;;;;29.45;14.70;;;18.60;43.70;;;;;;5063292;28;20055;-43
2022/05/05 10:53:38;;;;;;;36.40;18.50;;;18.70;43.40;;;;;;5059239;28;20491;-43
2022/05/05 10:56:27;;;;;;;34.60;17.70;;;18.70;43.00;;;;;;5061149;28;20049;-45
2022/05/05 10:58:59;;;;;;;29.02;16.60;;;18.70;43.60;;;;;;5062400;28;20056;-44
2022/05/05 11:01:29;;;;;;;29.05;15.90;;;18.80;43.00;;;;;;5061647;28;20052;-44
2022/05/05 11:04:26;;;;;;;26.27;14.45;;;18.80;43.00;;;;;;5059420;28;20075;-43
2022/05/05 11:07:30;;;;;;;35.13;18.33;;;18.90;43.50;;;;;;5060051;28;20056;-45
2022/05/05 11:09:59;;;;;;;38.03;17.63;;;19.00;42.90;;;;;;5062942;28;20487;-46
2022/05/05 11:12:33;;;;;;;31.65;18.27;;;19.10;42.70;;;;;;5059637;28;20839;-43
2022/05/05 11:23:43;;;;;;;24.73;13.38;;;19.40;41.70;;;;;;5062132;28;20411;-43
2022/05/05 11:26:12;;;;;;;23.63;14.43;;;19.40;41.80;;;;;;5042543;28;20055;-44
2022/05/05 11:28:41;;;;;;;24.65;14.00;;;19.50;41.80;;;;;;5061415;28;20063;-43
2022/05/05 11:31:19;;;;;;;27.92;14.25;;;19.50;41.80;;;;;;5062303;28;20518;-43
2022/05/05 11:33:55;;;;;;;30.50;15.63;;;19.60;42.40;;;;;;5059415;28;20419;-44
2022/05/05 11:36:27;;;;;;;29.25;14.88;;;19.70;41.60;;;;;;5061204;28;20052;-43
2022/05/05 11:38:55;;;;;;;30.42;14.55;;;19.70;41.70;;;;;;5062407;28;20053;-46
2022/05/05 11:41:23;;;;;;;30.75;15.90;;;19.70;41.30;;;;;;5061254;28;20917;-43
2022/05/05 11:46:38;;;;;;;25.70;14.10;;;19.60;41.50;;;;;;5065156;28;20423;-43
2022/05/05 11:49:08;;;;;;;24.13;13.98;;;19.70;41.70;;;;;;5060440;28;20060;-47
2022/05/05 11:51:37;;;;;;;23.70;14.32;;;19.60;42.20;;;;;;5057899;28;20064;-43
2022/05/05 11:54:07;;;;;;;22.58;13.57;;;19.60;41.10;;;;;;5060183;28;20064;-44
2022/05/05 11:56:36;;;;;;;25.55;14.18;;;19.60;41.30;;;;;;5061430;28;20053;-43
2022/05/05 12:02:06;;;;;;;29.38;14.80;;;19.60;40.70;;;;;;5063978;28;20064;-45
2022/05/05 12:04:36;;;;;;;28.50;13.88;;;19.70;40.40;;;;;;5058345;28;20056;-43
2022/05/05 12:07:04;;;;;;;21.35;12.65;;;19.70;40.80;;;;;;5057538;28;20056;-43
2022/05/05 12:09:32;;;;;;;19.65;12.13;;;19.80;41.10;;;;;;5059365;28;20412;-47
2022/05/05 12:12:13;;;;;;;25.50;13.10;;;19.90;41.10;;;;;;5058468;28;20422;-44
2022/05/05 12:14:44;;;;;;;29.33;13.20;;;19.90;40.90;;;;;;5057865;28;20055;-44
2022/05/05 12:17:18;;;;;;;23.60;13.20;;;19.90;40.90;;;;;;5058289;28;20048;-44
2022/05/05 12:19:48;;;;;;;23.02;13.77;;;20.00;41.90;;;;;;5059000;28;20063;-43
2022/05/05 12:22:22;;;;;;;28.23;14.25;;;20.00;42.70;;;;;;5054405;28;20065;-43
2022/05/05 12:24:49;;;;;;;23.00;13.80;;;20.10;41.00;;;;;;5050809;28;20063;-43
2022/05/05 12:27:17;;;;;;;21.73;12.23;;;20.10;40.80;;;;;;5056373;28;20052;-43
2022/05/05 12:29:47;;;;;;;21.60;12.63;;;20.10;41.10;;;;;;5056208;28;20052;-44
2022/05/05 12:32:17;;;;;;;18.75;11.68;;;20.10;40.20;;;;;;5056831;28;20860;-43
2022/05/05 12:34:45;;;;;;;18.38;11.18;;;20.20;40.40;;;;;;5056592;28;20063;-43
2022/05/05 12:37:15;;;;;;;20.52;10.98;;;20.30;40.00;;;;;;5058969;28;20423;-43
2022/05/05 12:39:57;;;;;;;17.75;10.77;;;20.30;39.70;;;;;;5056114;28;20052;-45
2022/05/05 12:42:25;;;;;;;19.25;9.57;;;20.40;39.70;;;;;;5057102;28;20071;-44
2022/05/05 12:44:54;;;;;;;14.70;9.38;;;20.40;40.40;;;;;;5058963;28;21222;-44
2022/05/05 12:47:23;;;;;;;14.27;9.30;;;20.60;40.80;;;;;;5055325;28;20041;-43
2022/05/05 12:49:51;;;;;;;17.52;10.43;;;20.60;40.40;;;;;;5057670;28;20053;-44
2022/05/05 13:00:57;;;;;;;20.20;11.02;;;21.10;40.10;;;;;;4991832;28;20052;-44
2022/05/05 13:03:24;;;;;;;19.08;10.90;;;21.20;40.00;;;;;;5049877;28;20079;-43
2022/05/05 13:05:52;;;;;;;19.45;10.57;;;21.20;38.60;;;;;;5057966;28;20048;-43
2022/05/05 13:08:19;;;;;;;15.02;9.75;;;21.20;39.00;;;;;;5058826;28;20523;-44
2022/05/05 13:10:47;;;;;;;18.40;10.05;;;21.10;38.90;;;;;;5057605;28;20929;-43
2022/05/05 13:13:15;;;;;;;20.60;10.25;;;21.10;38.70;;;;;;5054889;28;20123;-45
2022/05/05 13:15:43;;;;;;;17.02;10.25;;;21.00;38.70;;;;;;5057124;28;20064;-43
2022/05/05 13:18:12;;;;;;;22.10;10.70;;;21.00;38.80;;;;;;5057003;28;20103;-43
2022/05/05 13:20:40;;;;;;;18.20;10.00;;;21.00;38.50;;;;;;5058005;28;20479;-43
2022/05/05 13:23:07;;;;;;;18.85;9.95;;;20.90;38.30;;;;;;5053455;28;20068;-42
2022/05/05 13:25:35;;;;;;;15.45;8.57;;;21.00;39.20;;;;;;5056603;28;20567;-43
2022/05/05 13:28:02;;;;;;;16.67;8.98;;;21.00;40.10;;;;;;5055021;28;20053;-43
2022/05/05 13:30:30;;;;;;;20.50;9.63;;;21.10;39.50;;;;;;5054785;28;20048;-46
2022/05/05 13:32:57;;;;;;;24.45;10.85;;;21.20;40.20;;;;;;5052873;28;20063;-44
2022/05/05 13:35:26;;;;;;;20.63;10.70;;;21.30;40.20;;;;;;5054159;28;20053;-44
2022/05/05 13:37:54;;;;;;;19.02;10.55;;;21.40;38.70;;;;;;5057054;28;20503;-43
2022/05/05 13:40:22;;;;;;;19.65;10.70;;;21.50;39.40;;;;;;5055799;28;20056;-43